createdAt,value
2018-01-21T00:01:40.360Z,54.00
2018-01-21T00:04:11.196Z,54.50
2018-01-21T00:06:41.468Z,53.50
2018-01-21T00:09:12.947Z,49.00
2018-01-21T00:11:43.618Z,52.00
2018-01-21T00:14:13.995Z,58.75
2018-01-21T00:16:45.496Z,45.25
2018-01-21T00:19:16.515Z,42.50
2018-01-21T00:21:46.641Z,51.50
2018-01-21T00:24:18.116Z,52.25
2018-01-21T00:26:48.576Z,55.75
2018-01-21T00:29:20.604Z,47.25
2018-01-21T00:31:52.425Z,48.50
2018-01-21T00:34:23.737Z,56.25
2018-01-21T00:36:55.627Z,44.75
2018-01-21T00:39:27.949Z,48.50
2018-01-21T00:41:58.450Z,55.50
2018-01-21T00:44:29.066Z,52.00
2018-01-21T00:46:59.580Z,48.25
2018-01-21T00:49:30.087Z,44.00
2018-01-21T00:52:01.081Z,48.25
2018-01-21T00:54:32.916Z,68.50
2018-01-21T00:57:03.588Z,45.00
2018-01-21T00:59:34.004Z,45.50
2018-01-21T01:02:05.462Z,53.25
2018-01-21T01:04:37.046Z,45.25
2018-01-21T01:07:13.058Z,41.75
2018-01-21T01:09:46.664Z,47.00
2018-01-21T01:12:17.657Z,48.50
2018-01-21T01:14:48.823Z,49.75
2018-01-21T01:17:19.490Z,44.50
2018-01-21T01:19:50.338Z,44.75
2018-01-21T01:22:23.445Z,53.00
2018-01-21T01:24:53.920Z,48.00
2018-01-21T01:27:24.591Z,51.50
2018-01-21T01:29:55.168Z,43.00
2018-01-21T01:32:29.601Z,43.50
2018-01-21T01:35:00.079Z,54.75
2018-01-21T01:37:30.388Z,64.25
2018-01-21T01:40:01.159Z,50.75
2018-01-21T01:42:31.973Z,41.50
2018-01-21T01:45:05.365Z,45.25
2018-01-21T01:47:35.991Z,43.25
2018-01-21T01:50:06.227Z,54.75
2018-01-21T01:52:36.546Z,49.50
2018-01-21T01:55:06.836Z,41.75
2018-01-21T01:57:37.291Z,47.25
2018-01-21T02:00:08.569Z,54.00
2018-01-21T02:02:39.612Z,44.25
2018-01-21T02:05:09.991Z,54.75
2018-01-21T02:07:40.279Z,46.75
2018-01-21T02:10:10.628Z,52.00
2018-01-21T02:12:40.875Z,56.00
2018-01-21T02:15:14.132Z,52.00
2018-01-21T02:17:44.350Z,64.50
2018-01-21T02:20:20.293Z,52.50
2018-01-21T02:22:50.906Z,54.00
2018-01-21T02:25:24.656Z,62.00
2018-01-21T02:27:55.135Z,34.25
2018-01-21T02:30:27.146Z,47.75
2018-01-21T02:32:57.702Z,36.75
2018-01-21T02:35:28.141Z,41.00
2018-01-21T02:37:58.828Z,45.75
2018-01-21T02:40:32.054Z,42.75
2018-01-21T02:43:02.708Z,47.50
2018-01-21T02:45:33.473Z,38.00
2018-01-21T02:48:04.288Z,40.75
2018-01-21T02:50:35.179Z,43.25
2018-01-21T02:53:05.614Z,41.25
2018-01-21T02:55:36.372Z,36.75
2018-01-21T02:58:06.680Z,38.50
2018-01-21T03:00:37.015Z,36.00
2018-01-21T03:03:08.129Z,33.00
2018-01-21T03:05:38.923Z,33.25
2018-01-21T03:08:10.233Z,31.75
2018-01-21T03:10:40.622Z,41.75
2018-01-21T03:13:11.037Z,33.00
2018-01-21T03:15:42.609Z,33.75
2018-01-21T03:18:13.224Z,41.75
2018-01-21T03:20:43.378Z,31.75
2018-01-21T03:23:13.889Z,31.25
2018-01-21T03:25:44.945Z,30.75
2018-01-21T03:28:15.284Z,32.00
2018-01-21T03:30:45.596Z,28.50
2018-01-21T03:33:17.997Z,23.75
2018-01-21T03:35:48.240Z,26.75
2018-01-21T03:38:18.724Z,23.75
2018-01-21T03:40:49.003Z,22.50
2018-01-21T03:43:19.338Z,26.75
2018-01-21T03:45:50.642Z,25.00
2018-01-21T03:48:31.928Z,30.50
2018-01-21T03:51:02.571Z,25.75
2018-01-21T03:53:33.561Z,23.50
2018-01-21T03:56:04.249Z,25.75
2018-01-21T03:58:35.050Z,33.00
2018-01-21T04:01:05.733Z,25.50
2018-01-21T04:03:36.889Z,29.75
2018-01-21T04:06:07.227Z,27.75
2018-01-21T04:08:37.707Z,32.25
2018-01-21T04:11:08.356Z,28.75
2018-01-21T04:13:38.691Z,27.00
2018-01-21T04:16:09.658Z,25.75
2018-01-21T04:18:40.135Z,26.75
2018-01-21T04:21:10.741Z,36.75
2018-01-21T04:23:41.180Z,32.25
2018-01-21T04:26:11.694Z,33.00
2018-01-21T04:28:42.013Z,36.25
2018-01-21T04:31:12.492Z,33.25
2018-01-21T04:33:42.781Z,34.50
2018-01-21T04:36:13.716Z,33.00
2018-01-21T04:38:44.853Z,38.00
2018-01-21T04:41:15.011Z,25.50
2018-01-21T04:43:45.438Z,33.75
2018-01-21T04:46:16.732Z,46.00
2018-01-21T04:48:46.921Z,45.00
2018-01-21T04:51:17.242Z,41.00
2018-01-21T04:53:48.525Z,38.00
2018-01-21T04:56:28.596Z,42.75
2018-01-21T04:59:00.379Z,43.50
2018-01-21T05:01:31.829Z,45.25
2018-01-21T05:04:02.747Z,44.00
2018-01-21T05:06:33.006Z,35.50
2018-01-21T05:09:04.118Z,41.75
2018-01-21T05:11:35.750Z,49.25
2018-01-21T05:14:08.445Z,40.25
2018-01-21T05:19:13.184Z,34.75
2018-01-21T05:21:45.045Z,31.50
2018-01-21T05:24:17.851Z,31.00
2018-01-21T05:26:50.239Z,43.50
2018-01-21T05:29:22.295Z,47.25
2018-01-21T05:31:53.881Z,41.75
2018-01-21T05:34:24.335Z,45.50
2018-01-21T05:36:55.952Z,43.00
2018-01-21T05:39:28.200Z,47.50
2018-01-21T05:41:58.382Z,47.25
2018-01-21T05:44:28.588Z,36.50
2018-01-21T05:46:59.727Z,44.50
2018-01-21T05:49:30.063Z,44.75
2018-01-21T05:52:00.616Z,41.75
2018-01-21T05:54:31.642Z,34.25
2018-01-21T05:57:02.160Z,37.25
2018-01-21T05:59:33.366Z,55.25
2018-01-21T06:02:04.182Z,41.50
2018-01-21T06:04:34.679Z,49.75
2018-01-21T06:07:06.583Z,36.00
2018-01-21T06:09:37.248Z,52.25
2018-01-21T06:12:07.451Z,30.50
2018-01-21T06:14:38.177Z,36.75
2018-01-21T06:17:08.922Z,36.25
2018-01-21T06:19:39.304Z,43.00
2018-01-21T06:22:09.992Z,40.50
2018-01-21T06:24:40.251Z,46.25
2018-01-21T06:27:10.431Z,41.50
2018-01-21T06:29:40.559Z,35.50
2018-01-21T06:32:11.629Z,38.50
2018-01-21T06:34:42.285Z,30.25
2018-01-21T06:37:12.843Z,33.25
2018-01-21T06:39:44.038Z,39.25
2018-01-21T06:42:14.279Z,34.50
2018-01-21T06:44:45.174Z,40.50
2018-01-21T06:47:15.729Z,30.00
2018-01-21T06:49:46.230Z,36.50
2018-01-21T06:52:20.142Z,34.50
2018-01-21T06:54:50.975Z,32.25
2018-01-21T06:57:21.349Z,25.25
2018-01-21T06:59:51.704Z,30.25
2018-01-21T07:02:22.694Z,41.00
2018-01-21T07:04:52.857Z,25.75
2018-01-21T07:07:30.236Z,32.75
2018-01-21T07:10:00.970Z,22.00
2018-01-21T07:12:31.913Z,28.50
2018-01-21T07:15:04.795Z,28.25
2018-01-21T07:17:35.484Z,30.00
2018-01-21T07:20:06.022Z,24.75
2018-01-21T07:22:36.336Z,27.00
2018-01-21T07:25:06.704Z,20.25
2018-01-21T07:27:37.033Z,25.75
2018-01-21T07:30:09.086Z,24.00
2018-01-21T07:32:39.577Z,30.00
2018-01-21T07:35:09.933Z,25.75
2018-01-21T07:37:40.905Z,29.50
2018-01-21T07:40:11.188Z,22.50
2018-01-21T07:42:41.568Z,23.00
2018-01-21T07:45:14.270Z,23.25
2018-01-21T07:47:44.563Z,21.00
2018-01-21T07:50:15.739Z,24.75
2018-01-21T07:52:46.348Z,26.00
2018-01-21T07:55:16.807Z,23.00
2018-01-21T07:57:47.116Z,23.00
2018-01-21T08:00:19.576Z,18.75
2018-01-21T08:02:50.000Z,19.00
2018-01-21T08:05:20.352Z,18.00
2018-01-21T08:07:50.627Z,22.00
2018-01-21T08:10:21.356Z,20.00
2018-01-21T08:12:52.507Z,16.25
2018-01-21T08:15:23.124Z,17.25
2018-01-21T08:17:53.717Z,15.75
2018-01-21T08:20:24.613Z,15.25
2018-01-21T08:22:57.159Z,18.25
2018-01-21T08:25:27.570Z,17.25
2018-01-21T08:27:58.197Z,16.75
2018-01-21T08:30:28.889Z,19.25
2018-01-21T08:32:59.997Z,23.75
2018-01-21T08:37:42.220Z,19.50
2018-01-21T08:42:21.779Z,18.75
2018-01-21T08:44:52.386Z,13.25
2018-01-21T08:47:22.886Z,16.75
2018-01-21T08:49:53.473Z,14.00
2018-01-21T08:52:23.943Z,16.25
2018-01-21T08:54:55.763Z,18.00
2018-01-21T08:57:27.064Z,14.25
2018-01-21T08:59:57.460Z,15.50
2018-01-21T09:02:28.107Z,12.00
2018-01-21T09:04:58.718Z,15.25
2018-01-21T09:07:29.529Z,13.50
2018-01-21T09:10:00.093Z,18.00
2018-01-21T09:12:30.300Z,18.00
2018-01-21T09:15:00.587Z,14.50
2018-01-21T09:17:34.537Z,14.25
2018-01-21T09:20:05.083Z,12.25
2018-01-21T09:22:35.375Z,9.75
2018-01-21T09:25:05.537Z,14.25
2018-01-21T09:27:36.225Z,15.00
2018-01-21T09:30:08.214Z,12.75
2018-01-21T09:32:43.911Z,16.25
2018-01-21T09:35:14.153Z,14.25
2018-01-21T09:37:44.641Z,11.75
2018-01-21T09:40:15.233Z,13.25
2018-01-21T09:42:49.440Z,11.75
2018-01-21T09:45:26.228Z,15.00
2018-01-21T09:47:59.402Z,11.75
2018-01-21T09:50:30.362Z,16.75
2018-01-21T09:53:00.817Z,15.00
2018-01-21T09:55:38.110Z,12.25
2018-01-21T09:58:12.334Z,14.00
2018-01-21T10:00:43.657Z,17.00
2018-01-21T10:03:14.583Z,15.00
2018-01-21T10:05:45.019Z,11.50
2018-01-21T10:08:16.082Z,13.00
2018-01-21T10:10:47.081Z,13.00
2018-01-21T10:13:18.956Z,11.25
2018-01-21T10:15:50.849Z,12.75
2018-01-21T10:18:22.568Z,16.00
2018-01-21T10:20:53.511Z,11.00
2018-01-21T10:23:24.092Z,13.25
2018-01-21T10:28:32.482Z,11.00
2018-01-21T10:31:03.134Z,15.25
2018-01-21T10:33:34.633Z,11.25
2018-01-21T10:36:06.274Z,8.75
2018-01-21T10:38:38.168Z,15.00
2018-01-21T10:41:09.231Z,12.25
2018-01-21T10:43:39.796Z,12.75
2018-01-21T10:46:14.723Z,13.75
2018-01-21T10:48:50.033Z,12.50
2018-01-21T10:51:20.689Z,13.50
2018-01-21T10:53:51.711Z,10.75
2018-01-21T10:56:24.142Z,13.00
2018-01-21T10:58:54.719Z,11.00
2018-01-21T11:01:25.285Z,14.25
2018-01-21T11:03:56.841Z,12.50
2018-01-21T11:06:28.784Z,11.00
2018-01-21T11:09:02.367Z,11.00
2018-01-21T11:11:34.320Z,15.25
2018-01-21T11:14:05.452Z,10.00
2018-01-21T11:16:37.394Z,11.50
2018-01-21T11:19:09.977Z,12.25
2018-01-21T11:21:40.786Z,8.75
2018-01-21T11:24:11.361Z,9.00
2018-01-21T11:26:43.782Z,9.00
2018-01-21T11:29:14.763Z,10.00
2018-01-21T11:31:47.722Z,10.50
2018-01-21T11:34:20.271Z,16.75
2018-01-21T11:36:52.816Z,15.00
2018-01-21T11:39:25.274Z,19.00
2018-01-21T11:41:58.148Z,8.50
2018-01-21T11:44:32.095Z,9.50
2018-01-21T11:47:10.740Z,11.25
2018-01-21T11:49:39.735Z,14.25
2018-01-21T11:52:10.769Z,16.50
2018-01-21T11:54:43.119Z,19.25
2018-01-21T11:57:16.761Z,11.00
2018-01-21T11:59:49.116Z,10.25
2018-01-21T12:02:28.105Z,8.00
2018-01-21T12:05:05.667Z,8.75
2018-01-21T12:07:38.062Z,8.50
2018-01-21T12:10:11.791Z,9.75
2018-01-21T12:12:45.196Z,9.00
2018-01-21T12:15:20.620Z,9.00
2018-01-21T12:17:55.556Z,8.50
2018-01-21T12:20:27.427Z,14.75
2018-01-21T12:23:01.154Z,10.50
2018-01-21T12:25:35.590Z,8.25
2018-01-21T12:28:07.695Z,10.25
2018-01-21T12:30:40.493Z,9.25
2018-01-21T12:33:13.174Z,10.25
2018-01-21T12:35:47.726Z,12.00
2018-01-21T12:38:20.756Z,12.00
2018-01-21T12:40:53.071Z,13.00
2018-01-21T12:43:26.073Z,14.25
2018-01-21T12:46:03.338Z,10.50
2018-01-21T12:48:37.608Z,13.75
2018-01-21T12:51:11.420Z,14.50
2018-01-21T12:53:44.287Z,13.75
2018-01-21T12:56:20.234Z,14.00
2018-01-21T12:58:53.995Z,11.00
2018-01-21T13:01:29.802Z,14.00
2018-01-21T13:04:05.951Z,7.25
2018-01-21T13:06:39.915Z,8.00
2018-01-21T13:09:11.831Z,12.75
2018-01-21T13:11:44.024Z,14.50
2018-01-21T13:14:16.514Z,7.75
2018-01-21T13:16:50.098Z,16.75
2018-01-21T13:19:25.325Z,11.00
2018-01-21T13:22:00.171Z,11.00
2018-01-21T13:24:33.253Z,12.00
2018-01-21T13:27:06.453Z,12.00
2018-01-21T13:29:40.025Z,8.00
2018-01-21T13:32:11.888Z,7.25
2018-01-21T13:34:46.525Z,7.00
2018-01-21T13:40:03.767Z,4.25
2018-01-21T13:42:36.883Z,7.00
2018-01-21T13:45:10.425Z,10.75
2018-01-21T13:47:46.257Z,11.00
2018-01-21T13:50:21.298Z,11.75
2018-01-21T13:52:56.495Z,10.00
2018-01-21T13:58:10.193Z,10.50
2018-01-21T14:00:50.481Z,6.75
2018-01-21T14:03:26.783Z,9.00
2018-01-21T14:06:00.950Z,13.50
2018-01-21T14:08:38.201Z,11.75
2018-01-21T14:11:11.009Z,9.75
2018-01-21T14:13:46.041Z,11.75
2018-01-21T14:16:19.705Z,12.75
2018-01-21T14:18:53.749Z,16.50
2018-01-21T14:21:27.379Z,11.75
2018-01-21T14:23:59.852Z,8.50
2018-01-21T14:26:31.386Z,13.25
2018-01-21T14:29:04.380Z,12.50
2018-01-21T14:31:40.545Z,16.75
2018-01-21T14:34:14.867Z,14.50
2018-01-21T14:36:50.586Z,19.25
2018-01-21T14:39:30.837Z,18.00
2018-01-21T14:42:02.627Z,20.50
2018-01-21T14:44:35.600Z,17.50
2018-01-21T14:47:11.268Z,18.50
2018-01-21T14:49:45.636Z,12.00
2018-01-21T14:52:19.676Z,9.00
2018-01-21T14:54:53.637Z,12.00
2018-01-21T14:57:28.114Z,15.25
2018-01-21T15:00:04.710Z,12.50
2018-01-21T15:02:39.645Z,12.00
2018-01-21T15:05:17.481Z,13.25
2018-01-21T15:07:52.249Z,22.25
2018-01-21T15:10:28.824Z,15.25
2018-01-21T15:13:00.975Z,29.75
2018-01-21T15:15:32.838Z,22.50
2018-01-21T15:18:05.938Z,17.00
2018-01-21T15:20:39.826Z,23.00
2018-01-21T15:23:13.951Z,20.50
2018-01-21T15:25:47.291Z,19.75
2018-01-21T15:28:24.487Z,22.50
2018-01-21T15:30:59.909Z,21.25
2018-01-21T15:33:34.828Z,16.75
2018-01-21T15:36:10.553Z,24.25
2018-01-21T15:38:42.866Z,23.25
2018-01-21T15:41:14.010Z,27.25
2018-01-21T15:43:46.788Z,21.75
2018-01-21T15:46:37.147Z,30.75
2018-01-21T15:49:11.373Z,24.25
2018-01-21T15:51:46.219Z,24.00
2018-01-21T15:54:18.067Z,28.75
2018-01-21T15:56:50.391Z,26.75
2018-01-21T15:59:23.063Z,28.50
2018-01-21T16:01:58.708Z,27.25
2018-01-21T16:04:30.417Z,21.50
2018-01-21T16:07:06.656Z,21.75
2018-01-21T16:09:39.632Z,23.25
2018-01-21T16:12:10.956Z,19.75
2018-01-21T16:14:43.511Z,23.75
2018-01-21T16:17:15.557Z,17.75
2018-01-21T16:19:49.234Z,16.75
2018-01-21T16:22:27.353Z,59.00
2018-01-21T16:24:58.607Z,27.00
2018-01-21T16:27:29.825Z,20.50
2018-01-21T16:30:01.004Z,21.00
2018-01-21T16:32:36.250Z,23.00
2018-01-21T16:35:10.855Z,25.00
2018-01-21T16:37:50.243Z,29.00
2018-01-21T16:40:20.916Z,28.50
2018-01-21T16:42:51.400Z,25.25
2018-01-21T16:45:24.433Z,30.50
2018-01-21T16:47:55.367Z,32.00
2018-01-21T16:50:27.226Z,29.00
2018-01-21T16:52:59.926Z,24.75
2018-01-21T16:55:32.796Z,28.25
2018-01-21T16:58:04.181Z,28.00
2018-01-21T17:00:36.266Z,23.75
2018-01-21T17:03:08.505Z,29.00
2018-01-21T17:05:39.837Z,27.00
2018-01-21T17:08:10.837Z,29.00
2018-01-21T17:10:41.560Z,27.75
2018-01-21T17:13:12.214Z,26.75
2018-01-21T17:15:43.468Z,31.00
2018-01-21T17:18:14.537Z,30.75
2018-01-21T17:20:47.280Z,25.50
2018-01-21T17:23:18.103Z,24.00
2018-01-21T17:25:50.646Z,30.25
2018-01-21T17:31:00.839Z,33.00
2018-01-21T17:33:31.627Z,30.75
2018-01-21T17:36:02.509Z,31.00
2018-01-21T17:38:33.081Z,28.00
2018-01-21T17:41:04.410Z,28.50
2018-01-21T17:43:36.071Z,23.00
2018-01-21T17:46:10.224Z,26.50
2018-01-21T17:48:42.273Z,27.75
2018-01-21T17:51:12.790Z,31.00
2018-01-21T17:53:43.734Z,25.75
2018-01-21T17:56:15.162Z,29.00
2018-01-21T17:58:46.620Z,26.00
2018-01-21T18:01:26.440Z,32.25
2018-01-21T18:03:58.219Z,28.75
2018-01-21T18:06:32.902Z,21.50
2018-01-21T18:09:11.682Z,27.75
2018-01-21T18:11:46.812Z,20.50
2018-01-21T18:14:20.565Z,22.00
2018-01-21T18:16:53.108Z,30.25
2018-01-21T18:19:30.904Z,21.50
2018-01-21T18:22:02.231Z,16.00
2018-01-21T18:24:36.151Z,20.25
2018-01-21T18:27:07.326Z,16.00
2018-01-21T18:29:38.778Z,17.50
2018-01-21T18:32:11.773Z,18.25
2018-01-21T18:34:42.432Z,13.75
2018-01-21T18:37:13.350Z,15.75
2018-01-21T18:39:44.282Z,13.75
2018-01-21T18:42:16.491Z,13.75
2018-01-21T18:44:49.311Z,16.50
2018-01-21T18:47:21.454Z,21.75
2018-01-21T18:49:56.216Z,22.25
2018-01-21T18:52:28.953Z,19.75
2018-01-21T18:55:00.277Z,21.25
2018-01-21T18:57:32.518Z,20.25
2018-01-21T19:03:01.387Z,27.75
2018-01-21T19:05:33.340Z,23.25
2018-01-21T19:08:05.560Z,22.50
2018-01-21T19:10:37.790Z,19.50
2018-01-21T19:13:13.281Z,19.25
2018-01-21T19:15:44.821Z,23.75
2018-01-21T19:18:15.583Z,24.00
2018-01-21T19:20:47.106Z,23.00
2018-01-21T19:23:17.748Z,25.25
2018-01-21T19:25:49.044Z,24.50
2018-01-21T19:28:23.748Z,22.75
2018-01-21T19:30:55.810Z,24.75
2018-01-21T19:33:28.898Z,23.75
2018-01-21T19:36:02.838Z,22.75
2018-01-21T19:38:37.916Z,23.75
2018-01-21T19:41:12.974Z,29.25
2018-01-21T19:43:44.554Z,20.00
2018-01-21T19:46:16.425Z,22.75
2018-01-21T19:48:48.557Z,24.25
2018-01-21T19:51:19.128Z,23.00
2018-01-21T19:53:50.030Z,22.25
2018-01-21T19:56:21.372Z,25.25
2018-01-21T20:01:31.254Z,24.25
2018-01-21T20:04:03.635Z,23.50
2018-01-21T20:06:35.138Z,20.25
2018-01-21T20:09:07.266Z,24.75
2018-01-21T20:11:38.577Z,23.75
2018-01-21T20:14:10.103Z,27.75
2018-01-21T20:16:40.956Z,28.50
2018-01-21T20:19:12.442Z,23.25
2018-01-21T20:21:44.577Z,24.50
2018-01-21T20:24:15.488Z,21.50
2018-01-21T20:26:46.408Z,26.25
2018-01-21T20:29:16.897Z,22.00
2018-01-21T20:31:48.431Z,22.00
2018-01-21T20:34:20.163Z,29.25
2018-01-21T20:36:56.920Z,27.00
2018-01-21T20:39:27.701Z,23.00
2018-01-21T20:41:59.481Z,24.25
2018-01-21T20:44:30.091Z,21.25
2018-01-21T20:47:01.819Z,26.75
2018-01-21T20:49:33.290Z,17.00
2018-01-21T20:52:09.101Z,21.50
2018-01-21T20:54:40.932Z,24.00
2018-01-21T20:57:11.581Z,21.50
2018-01-21T20:59:42.995Z,16.75
2018-01-21T21:02:14.561Z,15.50
2018-01-21T21:04:44.967Z,16.75
2018-01-21T21:07:16.117Z,20.50
2018-01-21T21:09:47.850Z,18.00
2018-01-21T21:12:18.579Z,15.50
2018-01-21T21:14:49.215Z,18.75
2018-01-21T21:17:20.005Z,15.50
2018-01-21T21:19:52.496Z,16.50
2018-01-21T21:22:24.514Z,17.50
2018-01-21T21:24:54.901Z,20.00
2018-01-21T21:27:25.623Z,20.75
2018-01-21T21:29:57.246Z,16.75
2018-01-21T21:32:28.162Z,19.50
2018-01-21T21:34:58.765Z,16.25
2018-01-21T21:37:30.091Z,21.50
2018-01-21T21:40:00.791Z,20.25
2018-01-21T21:42:31.917Z,20.25
2018-01-21T21:45:05.847Z,15.75
2018-01-21T21:47:37.327Z,24.25
2018-01-21T21:50:08.232Z,19.50
2018-01-21T21:52:39.329Z,17.00
2018-01-21T21:55:09.839Z,16.50
2018-01-21T21:57:42.600Z,21.00
2018-01-21T22:00:19.642Z,18.00
2018-01-21T22:02:50.279Z,21.25
2018-01-21T22:05:21.508Z,16.75
2018-01-21T22:07:53.189Z,18.50
2018-01-21T22:10:24.569Z,23.50
2018-01-21T22:12:55.306Z,20.00
2018-01-21T22:15:26.595Z,22.50
2018-01-21T22:17:57.168Z,16.50
2018-01-21T22:20:27.761Z,17.75
2018-01-21T22:22:58.583Z,18.50
2018-01-21T22:25:29.092Z,20.50
2018-01-21T22:27:59.815Z,22.75
2018-01-21T22:30:31.873Z,20.75
2018-01-21T22:33:02.229Z,16.75
2018-01-21T22:35:33.007Z,22.50
2018-01-21T22:38:04.296Z,20.50
2018-01-21T22:40:34.959Z,18.50
2018-01-21T22:43:05.520Z,21.25
2018-01-21T22:45:36.403Z,16.75
2018-01-21T22:48:07.426Z,19.00
2018-01-21T22:50:37.877Z,20.00
2018-01-21T22:53:08.489Z,21.25
2018-01-21T22:55:39.813Z,22.25
2018-01-21T22:58:10.584Z,24.00
2018-01-21T23:00:41.548Z,20.25
2018-01-21T23:03:12.054Z,24.25
2018-01-21T23:05:42.490Z,17.00
2018-01-21T23:08:13.196Z,23.00
2018-01-21T23:10:43.828Z,19.50
2018-01-21T23:13:15.783Z,16.00
2018-01-21T23:15:46.551Z,18.50
2018-01-21T23:18:16.958Z,24.25
2018-01-21T23:21:00.045Z,18.50
2018-01-21T23:23:30.332Z,15.75
2018-01-21T23:26:01.189Z,21.50
2018-01-21T23:28:33.202Z,15.25
2018-01-21T23:31:03.476Z,14.00
2018-01-21T23:33:34.195Z,16.50
2018-01-21T23:36:04.523Z,21.25
2018-01-21T23:38:34.751Z,16.00
2018-01-21T23:41:05.352Z,16.75
2018-01-21T23:43:36.603Z,15.50
2018-01-21T23:46:07.148Z,21.00
2018-01-21T23:48:38.046Z,18.50
2018-01-21T23:51:08.382Z,14.00
2018-01-21T23:53:39.703Z,18.25
2018-01-21T23:56:10.284Z,17.00
2018-01-21T23:58:40.800Z,15.00
